createdAt,value
2023-05-13T00:02:06.814Z,2.47
2023-05-13T00:04:36.286Z,2.50
2023-05-13T00:07:04.415Z,2.93
2023-05-13T00:09:32.424Z,2.53
2023-05-13T00:12:00.562Z,2.23
2023-05-13T00:14:28.581Z,2.13
2023-05-13T00:16:58.704Z,2.80
2023-05-13T00:19:27.450Z,2.37
2023-05-13T00:21:56.766Z,2.40
2023-05-13T00:24:24.834Z,2.90
2023-05-13T00:26:52.829Z,2.47
2023-05-13T00:29:21.222Z,2.40
2023-05-13T00:31:49.485Z,2.63
2023-05-13T00:34:18.531Z,2.63
2023-05-13T00:36:46.868Z,2.50
2023-05-13T00:39:16.260Z,2.33
2023-05-13T00:41:44.317Z,1.90
2023-05-13T00:44:14.490Z,2.60
2023-05-13T00:46:43.288Z,2.30
2023-05-13T00:49:15.002Z,2.37
2023-05-13T00:51:45.130Z,2.03
2023-05-13T00:54:18.846Z,2.40
2023-05-13T00:56:46.939Z,2.30
2023-05-13T00:59:14.931Z,2.20
2023-05-13T01:01:53.521Z,2.10
2023-05-13T01:04:31.916Z,2.30
2023-05-13T01:07:10.104Z,2.50
2023-05-13T01:09:50.311Z,2.53
2023-05-13T01:12:33.797Z,2.33
2023-05-13T01:15:08.147Z,2.43
2023-05-13T01:17:48.647Z,2.20
2023-05-13T01:20:22.164Z,2.10
2023-05-13T01:22:51.969Z,2.20
2023-05-13T01:25:20.366Z,2.03
2023-05-13T01:27:49.271Z,2.20
2023-05-13T01:30:18.842Z,2.40
2023-05-13T01:32:47.267Z,2.87
2023-05-13T01:35:17.392Z,2.40
2023-05-13T01:37:47.654Z,2.30
2023-05-13T01:40:30.992Z,2.40
2023-05-13T01:43:01.986Z,2.53
2023-05-13T01:45:30.772Z,2.50
2023-05-13T01:47:59.777Z,2.60
2023-05-13T01:50:37.965Z,2.43
2023-05-13T01:53:06.535Z,2.70
2023-05-13T01:55:35.880Z,2.53
2023-05-13T01:58:05.607Z,2.43
2023-05-13T02:00:33.644Z,2.40
2023-05-13T02:03:01.816Z,2.60
2023-05-13T02:05:31.560Z,2.70
2023-05-13T02:08:00.302Z,2.63
2023-05-13T02:10:28.338Z,3.57
2023-05-13T02:12:58.466Z,2.70
2023-05-13T02:15:26.490Z,2.30
2023-05-13T02:17:54.733Z,2.40
2023-05-13T02:20:23.214Z,2.10
2023-05-13T02:22:52.185Z,2.20
2023-05-13T02:25:20.761Z,2.20
2023-05-13T02:27:48.785Z,2.13
2023-05-13T02:30:18.472Z,2.47
2023-05-13T02:32:46.555Z,2.43
2023-05-13T02:35:15.055Z,2.13
2023-05-13T02:37:43.460Z,2.33
2023-05-13T02:40:13.646Z,2.30
2023-05-13T02:42:43.228Z,2.60
2023-05-13T02:45:13.129Z,2.23
2023-05-13T02:47:46.035Z,2.30
2023-05-13T02:50:14.289Z,2.20
2023-05-13T02:52:44.106Z,2.40
2023-05-13T02:55:12.580Z,2.63
2023-05-13T02:57:40.685Z,2.23
2023-05-13T03:00:11.067Z,2.13
2023-05-13T03:02:39.534Z,2.73
2023-05-13T03:05:10.187Z,2.40
2023-05-13T03:07:38.219Z,2.50
2023-05-13T03:10:08.935Z,2.10
2023-05-13T03:12:37.120Z,2.30
2023-05-13T03:15:05.708Z,2.27
2023-05-13T03:17:34.224Z,2.40
2023-05-13T03:20:02.926Z,2.20
2023-05-13T03:22:33.302Z,2.47
2023-05-13T03:25:01.453Z,2.30
2023-05-13T03:27:36.258Z,1.90
2023-05-13T03:30:04.830Z,2.20
2023-05-13T03:32:35.528Z,2.70
2023-05-13T03:35:04.331Z,2.63
2023-05-13T03:37:34.557Z,2.20
2023-05-13T03:40:02.845Z,2.10
2023-05-13T03:42:31.241Z,2.47
2023-05-13T03:45:02.757Z,2.17
2023-05-13T03:47:31.940Z,2.23
2023-05-13T03:50:03.479Z,2.40
2023-05-13T03:52:39.892Z,2.40
2023-05-13T03:55:09.068Z,2.40
2023-05-13T03:57:37.136Z,2.27
2023-05-13T04:00:08.026Z,2.33
2023-05-13T04:02:43.285Z,2.30
2023-05-13T04:05:13.817Z,2.17
2023-05-13T04:07:43.481Z,2.47
2023-05-13T04:10:18.025Z,2.30
2023-05-13T04:12:46.191Z,2.13
2023-05-13T04:15:14.187Z,2.67
2023-05-13T04:17:42.274Z,2.57
2023-05-13T04:20:11.188Z,2.30
2023-05-13T04:22:39.213Z,2.43
2023-05-13T04:25:09.938Z,2.40
2023-05-13T04:27:39.918Z,2.40
2023-05-13T04:30:17.388Z,1.97
2023-05-13T04:32:46.144Z,2.60
2023-05-13T04:35:14.762Z,2.60
2023-05-13T04:37:45.753Z,2.30
2023-05-13T04:40:18.114Z,2.43
2023-05-13T04:42:54.360Z,2.30
2023-05-13T04:45:26.459Z,2.60
2023-05-13T04:47:56.826Z,2.60
2023-05-13T04:50:26.384Z,2.47
2023-05-13T04:52:56.445Z,2.53
2023-05-13T04:55:27.510Z,2.63
2023-05-13T04:57:56.690Z,2.43
2023-05-13T05:00:25.598Z,2.20
2023-05-13T05:02:53.760Z,2.57
2023-05-13T05:05:23.267Z,2.30
2023-05-13T05:07:51.471Z,2.43
2023-05-13T05:10:21.119Z,2.30
2023-05-13T05:12:55.506Z,2.20
2023-05-13T05:15:24.477Z,2.53
2023-05-13T05:17:56.768Z,2.30
2023-05-13T05:20:25.349Z,2.47
2023-05-13T05:22:56.378Z,2.47
2023-05-13T05:25:27.451Z,2.63
2023-05-13T05:27:57.200Z,2.10
2023-05-13T05:30:25.808Z,2.33
2023-05-13T05:33:02.031Z,2.60
2023-05-13T05:35:30.559Z,2.33
2023-05-13T05:37:59.276Z,2.70
2023-05-13T05:40:27.342Z,2.40
2023-05-13T05:42:56.759Z,2.90
2023-05-13T05:45:24.888Z,2.37
2023-05-13T05:47:54.098Z,2.63
2023-05-13T05:50:23.653Z,2.33
2023-05-13T05:52:51.824Z,2.90
2023-05-13T05:55:20.296Z,2.63
2023-05-13T05:57:48.635Z,2.53
2023-05-13T06:00:19.664Z,2.13
2023-05-13T06:02:48.838Z,2.33
2023-05-13T06:05:17.615Z,2.40
2023-05-13T06:07:46.439Z,2.30
2023-05-13T06:10:14.494Z,2.37
2023-05-13T06:12:42.860Z,2.77
2023-05-13T06:15:12.186Z,2.80
2023-05-13T06:17:41.873Z,2.23
2023-05-13T06:20:11.326Z,2.60
2023-05-13T06:22:41.119Z,2.80
2023-05-13T06:25:10.239Z,2.67
2023-05-13T06:27:38.280Z,2.70
2023-05-13T06:30:08.197Z,2.83
2023-05-13T06:32:36.318Z,2.87
2023-05-13T06:35:07.243Z,3.10
2023-05-13T06:37:35.815Z,2.90
2023-05-13T06:40:04.281Z,2.80
2023-05-13T06:42:40.482Z,2.63
2023-05-13T06:45:16.262Z,2.47
2023-05-13T06:47:44.329Z,2.77
2023-05-13T06:50:14.004Z,2.70
2023-05-13T06:52:42.170Z,2.97
2023-05-13T06:55:11.642Z,2.77
2023-05-13T06:57:43.282Z,2.80
2023-05-13T07:00:13.793Z,2.80
2023-05-13T07:02:42.244Z,3.03
2023-05-13T07:05:12.628Z,2.80
2023-05-13T07:07:43.298Z,2.63
2023-05-13T07:10:12.032Z,2.77
2023-05-13T07:12:40.193Z,2.67
2023-05-13T07:15:09.439Z,2.77
2023-05-13T07:17:37.616Z,2.67
2023-05-13T07:20:06.926Z,2.80
2023-05-13T07:22:35.038Z,2.80
2023-05-13T07:25:05.160Z,2.77
2023-05-13T07:27:33.485Z,2.83
2023-05-13T07:30:02.859Z,2.50
2023-05-13T07:32:31.364Z,2.80
2023-05-13T07:34:59.442Z,2.87
2023-05-13T07:37:27.458Z,3.33
2023-05-13T07:39:55.508Z,2.77
2023-05-13T07:42:25.954Z,2.83
2023-05-13T07:44:54.028Z,3.20
2023-05-13T07:47:22.232Z,3.17
2023-05-13T07:49:50.919Z,3.10
2023-05-13T07:54:47.536Z,3.13
2023-05-13T07:57:15.720Z,3.00
2023-05-13T07:59:45.315Z,3.03
2023-05-13T08:02:13.638Z,3.20
2023-05-13T08:04:41.690Z,2.90
2023-05-13T08:07:11.461Z,2.87
2023-05-13T08:09:39.665Z,3.00
2023-05-13T08:12:08.501Z,3.20
2023-05-13T08:14:37.349Z,2.63
2023-05-13T08:17:08.022Z,3.10
2023-05-13T08:19:37.492Z,3.40
2023-05-13T08:22:05.858Z,3.13
2023-05-13T08:24:33.929Z,3.03
2023-05-13T08:27:02.726Z,3.10
2023-05-13T08:29:30.780Z,3.30
2023-05-13T08:31:59.019Z,3.20
2023-05-13T08:34:28.666Z,3.33
2023-05-13T08:36:56.687Z,3.33
2023-05-13T08:39:24.746Z,3.23
2023-05-13T08:41:57.673Z,3.23
2023-05-13T08:44:29.212Z,3.40
2023-05-13T08:47:09.804Z,3.37
2023-05-13T08:49:39.894Z,3.10
2023-05-13T08:52:08.098Z,3.13
2023-05-13T08:54:36.275Z,3.00
2023-05-13T08:57:04.805Z,2.90
2023-05-13T08:59:32.807Z,3.23
2023-05-13T09:02:03.321Z,2.87
2023-05-13T09:04:32.024Z,2.90
2023-05-13T09:07:02.649Z,3.00
2023-05-13T09:09:31.052Z,3.00
2023-05-13T09:11:59.051Z,2.90
2023-05-13T09:14:32.502Z,3.27
2023-05-13T09:17:01.879Z,3.77
2023-05-13T09:19:30.318Z,3.20
2023-05-13T09:21:58.498Z,3.37
2023-05-13T09:24:28.057Z,3.00
2023-05-13T09:26:56.376Z,3.20
2023-05-13T09:29:26.497Z,3.20
2023-05-13T09:31:57.866Z,3.33
2023-05-13T09:34:27.800Z,3.60
2023-05-13T09:37:01.382Z,2.93
2023-05-13T09:39:34.008Z,3.10
2023-05-13T09:42:04.902Z,3.50
2023-05-13T09:44:34.985Z,3.00
2023-05-13T09:47:03.639Z,3.30
2023-05-13T09:49:33.204Z,3.57
2023-05-13T09:52:01.295Z,3.47
2023-05-13T09:54:36.635Z,3.03
2023-05-13T09:57:05.973Z,3.13
2023-05-13T09:59:34.359Z,3.10
2023-05-13T10:02:05.583Z,3.37
2023-05-13T10:04:34.159Z,2.90
2023-05-13T10:07:05.275Z,3.10
2023-05-13T10:09:38.630Z,3.70
2023-05-13T10:12:10.433Z,2.93
2023-05-13T10:14:38.767Z,3.00
2023-05-13T10:17:09.240Z,2.80
2023-05-13T10:19:38.462Z,3.20
2023-05-13T10:22:07.501Z,2.93
2023-05-13T10:24:38.871Z,3.23
2023-05-13T10:27:07.956Z,3.40
2023-05-13T10:29:38.434Z,3.60
2023-05-13T10:32:09.035Z,3.30
2023-05-13T10:34:39.212Z,3.33
2023-05-13T10:37:46.772Z,3.17
2023-05-13T10:40:50.802Z,3.40
2023-05-13T10:43:21.668Z,3.20
2023-05-13T10:45:52.700Z,3.70
2023-05-13T10:48:20.931Z,3.23
2023-05-13T10:50:54.290Z,3.10
2023-05-13T10:53:25.280Z,3.50
2023-05-13T10:56:00.467Z,2.80
2023-05-13T10:58:33.245Z,3.27
2023-05-13T11:01:19.876Z,3.30
2023-05-13T11:03:55.747Z,2.80
2023-05-13T11:06:27.058Z,3.53
2023-05-13T11:08:56.328Z,2.70
2023-05-13T11:11:32.938Z,3.30
2023-05-13T11:14:18.573Z,2.90
2023-05-13T11:16:49.029Z,3.13
2023-05-13T11:19:22.941Z,2.90
2023-05-13T11:21:56.509Z,3.10
2023-05-13T11:24:26.029Z,3.13
2023-05-13T11:26:58.918Z,3.60
2023-05-13T11:29:32.139Z,3.03
2023-05-13T11:32:02.043Z,3.63
2023-05-13T11:34:30.346Z,3.10
2023-05-13T11:37:09.554Z,3.27
2023-05-13T11:39:41.286Z,2.97
2023-05-13T11:42:12.266Z,3.20
2023-05-13T11:44:47.639Z,3.37
2023-05-13T11:47:27.942Z,3.57
2023-05-13T11:49:57.184Z,3.00
2023-05-13T11:52:25.296Z,2.93
2023-05-13T11:54:55.113Z,3.00
2023-05-13T11:57:26.991Z,3.10
2023-05-13T11:59:58.576Z,3.30
2023-05-13T12:02:29.432Z,3.23
2023-05-13T12:05:01.871Z,3.20
2023-05-13T12:07:30.042Z,3.23
2023-05-13T12:09:59.985Z,3.03
2023-05-13T12:12:36.473Z,3.13
2023-05-13T12:15:07.800Z,2.93
2023-05-13T12:17:36.699Z,2.73
2023-05-13T12:20:11.480Z,2.77
2023-05-13T12:22:52.575Z,3.30
2023-05-13T12:25:51.122Z,3.00
2023-05-13T12:28:22.230Z,2.33
2023-05-13T12:30:53.381Z,2.53
2023-05-13T12:33:23.607Z,2.23
2023-05-13T12:35:54.125Z,2.43
2023-05-13T12:38:25.520Z,2.50
2023-05-13T12:40:54.829Z,2.97
2023-05-13T12:43:24.822Z,2.30
2023-05-13T12:45:57.607Z,2.47
2023-05-13T12:48:26.850Z,2.43
2023-05-13T12:50:56.315Z,2.50
2023-05-13T12:53:24.527Z,2.60
2023-05-13T12:55:52.867Z,2.37
2023-05-13T12:58:20.964Z,2.50
2023-05-13T13:00:50.412Z,2.90
2023-05-13T13:03:19.477Z,2.70
2023-05-13T13:05:48.615Z,2.77
2023-05-13T13:08:16.679Z,2.90
2023-05-13T13:10:44.664Z,2.70
2023-05-13T13:13:12.933Z,2.83
2023-05-13T13:15:42.871Z,2.90
2023-05-13T13:18:16.297Z,2.43
2023-05-13T13:20:45.611Z,2.87
2023-05-13T13:23:13.773Z,2.60
2023-05-13T13:25:41.827Z,2.87
2023-05-13T13:28:09.974Z,2.87
2023-05-13T13:30:37.979Z,2.50
2023-05-13T13:33:06.022Z,2.67
2023-05-13T13:35:35.443Z,2.80
2023-05-13T13:38:03.440Z,3.17
2023-05-13T13:40:31.463Z,2.93
2023-05-13T13:42:59.477Z,3.40
2023-05-13T13:45:27.541Z,2.77
2023-05-13T13:47:55.666Z,3.23
2023-05-13T13:50:24.106Z,2.83
2023-05-13T13:52:53.751Z,2.90
2023-05-13T13:55:23.240Z,3.00
2023-05-13T13:57:51.931Z,2.93
2023-05-13T14:00:21.231Z,2.70
2023-05-13T14:02:49.627Z,3.07
2023-05-13T14:05:18.190Z,3.30
2023-05-13T14:07:48.233Z,3.20
2023-05-13T14:10:17.714Z,3.53
2023-05-13T14:12:45.761Z,3.27
2023-05-13T14:15:13.881Z,3.20
2023-05-13T14:17:42.029Z,2.90
2023-05-13T14:20:12.175Z,3.13
2023-05-13T14:22:40.281Z,3.20
2023-05-13T14:25:09.300Z,3.37
2023-05-13T14:27:38.953Z,3.37
2023-05-13T14:30:09.481Z,3.10
2023-05-13T14:32:37.594Z,3.40
2023-05-13T14:35:06.884Z,3.60
2023-05-13T14:37:35.001Z,3.07
2023-05-13T14:40:03.392Z,3.23
2023-05-13T14:42:31.566Z,3.17
2023-05-13T14:45:00.972Z,3.60
2023-05-13T14:47:29.704Z,3.37
2023-05-13T14:49:57.883Z,3.30
2023-05-13T14:52:26.320Z,3.30
2023-05-13T14:54:55.165Z,3.13
2023-05-13T14:57:23.423Z,3.40
2023-05-13T14:59:52.470Z,3.07
2023-05-13T15:02:21.948Z,3.27
2023-05-13T15:04:50.210Z,3.07
2023-05-13T15:07:18.374Z,3.13
2023-05-13T15:09:46.363Z,3.23
2023-05-13T15:12:14.466Z,3.93
2023-05-13T15:14:42.450Z,3.20
2023-05-13T15:17:12.000Z,3.30
2023-05-13T15:19:41.470Z,3.93
2023-05-13T15:25:01.599Z,3.10
2023-05-13T15:27:29.789Z,3.47
2023-05-13T15:29:57.822Z,3.23
2023-05-13T15:32:25.916Z,5.47
2023-05-13T15:34:55.313Z,4.47
2023-05-13T15:37:23.474Z,3.17
2023-05-13T15:39:51.601Z,2.90
2023-05-13T15:42:19.654Z,3.20
2023-05-13T15:44:47.671Z,3.60
2023-05-13T15:47:15.773Z,2.93
2023-05-13T15:49:43.823Z,3.07
2023-05-13T15:52:14.616Z,4.87
2023-05-13T15:54:42.744Z,4.23
2023-05-13T15:57:10.771Z,4.80
2023-05-13T15:59:38.804Z,3.80
2023-05-13T16:02:07.844Z,3.20
2023-05-13T16:04:35.930Z,3.10
2023-05-13T16:07:04.005Z,2.77
2023-05-13T16:09:33.384Z,3.30
2023-05-13T16:12:01.634Z,3.57
2023-05-13T16:14:30.883Z,3.10
2023-05-13T16:17:00.685Z,3.77
2023-05-13T16:19:28.945Z,3.20
2023-05-13T16:21:56.959Z,3.27
2023-05-13T16:24:24.963Z,3.40
2023-05-13T16:26:54.309Z,3.53
2023-05-13T16:29:22.355Z,3.20
2023-05-13T16:31:50.516Z,2.80
2023-05-13T16:34:18.595Z,3.30
2023-05-13T16:36:46.634Z,3.00
2023-05-13T16:39:14.644Z,3.40
2023-05-13T16:41:42.757Z,3.17
2023-05-13T16:44:12.336Z,3.63
2023-05-13T16:46:41.018Z,3.20
2023-05-13T16:49:09.145Z,4.37
2023-05-13T16:51:37.195Z,3.97
2023-05-13T16:54:05.679Z,7.60
2023-05-13T16:56:33.690Z,4.63
2023-05-13T16:59:01.717Z,4.87
2023-05-13T17:01:31.231Z,4.13
2023-05-13T17:03:59.360Z,3.70
2023-05-13T17:06:27.370Z,4.10
2023-05-13T17:08:55.934Z,3.50
2023-05-13T17:11:23.941Z,3.83
2023-05-13T17:13:52.122Z,3.50
2023-05-13T17:16:20.192Z,4.20
2023-05-13T17:18:49.704Z,3.73
2023-05-13T17:21:17.879Z,3.27
2023-05-13T17:23:47.215Z,5.00
2023-05-13T17:26:15.696Z,4.70
2023-05-13T17:28:44.048Z,3.50
2023-05-13T17:31:12.106Z,3.40
2023-05-13T17:33:40.971Z,3.37
2023-05-13T17:36:10.899Z,3.57
2023-05-13T17:38:39.540Z,3.27
2023-05-13T17:41:07.647Z,3.10
2023-05-13T17:43:36.285Z,3.10
2023-05-13T17:46:05.337Z,3.37
2023-05-13T17:48:33.935Z,3.10
2023-05-13T17:51:02.060Z,4.00
2023-05-13T17:53:34.394Z,3.50
2023-05-13T17:56:03.345Z,4.27
2023-05-13T17:58:31.436Z,3.90
2023-05-13T18:00:59.653Z,3.40
2023-05-13T18:03:28.094Z,3.73
2023-05-13T18:05:56.360Z,4.03
2023-05-13T18:08:24.472Z,3.77
2023-05-13T18:10:57.064Z,3.97
2023-05-13T18:13:26.194Z,3.73
2023-05-13T18:15:54.284Z,4.23
2023-05-13T18:18:22.364Z,4.37
2023-05-13T18:20:50.948Z,3.93
2023-05-13T18:23:19.079Z,3.93
2023-05-13T18:25:55.649Z,4.10
2023-05-13T18:28:25.959Z,3.87
2023-05-13T18:30:54.077Z,3.70
2023-05-13T18:33:22.448Z,3.73
2023-05-13T18:35:51.515Z,3.33
2023-05-13T18:38:19.726Z,4.00
2023-05-13T18:40:47.774Z,3.70
2023-05-13T18:43:16.022Z,4.47
2023-05-13T18:45:45.720Z,3.23
2023-05-13T18:48:13.903Z,3.23
2023-05-13T18:50:42.042Z,3.10
2023-05-13T18:53:10.082Z,2.70
2023-05-13T18:55:38.170Z,3.20
2023-05-13T18:58:06.598Z,3.60
2023-05-13T19:00:34.648Z,3.27
2023-05-13T19:03:04.226Z,3.90
2023-05-13T19:05:33.027Z,3.97
2023-05-13T19:08:01.855Z,3.30
2023-05-13T19:10:29.946Z,2.80
2023-05-13T19:12:57.991Z,2.97
2023-05-13T19:15:26.415Z,2.97
2023-05-13T19:17:54.593Z,3.20
2023-05-13T19:20:25.866Z,2.93
2023-05-13T19:22:54.136Z,3.77
2023-05-13T19:25:22.237Z,4.33
2023-05-13T19:27:50.569Z,4.43
2023-05-13T19:30:18.626Z,5.00
2023-05-13T19:32:46.738Z,4.83
2023-05-13T19:35:15.339Z,4.20
2023-05-13T19:37:44.669Z,4.40
2023-05-13T19:40:13.223Z,4.40
2023-05-13T19:42:41.267Z,4.13
2023-05-13T19:45:16.840Z,4.20
2023-05-13T19:50:18.877Z,3.50
2023-05-13T19:52:48.200Z,3.93
2023-05-13T19:55:16.858Z,3.60
2023-05-13T19:57:47.448Z,3.97
2023-05-13T20:00:20.087Z,3.90
2023-05-13T20:02:48.338Z,3.77
2023-05-13T20:05:16.675Z,3.90
2023-05-13T20:07:44.772Z,4.13
2023-05-13T20:10:14.325Z,4.50
2023-05-13T20:12:42.305Z,4.43
2023-05-13T20:15:11.385Z,5.07
2023-05-13T20:17:39.719Z,4.97
2023-05-13T20:20:09.662Z,4.60
2023-05-13T20:22:37.992Z,5.63
2023-05-13T20:25:07.355Z,4.87
2023-05-13T20:27:36.763Z,3.93
2023-05-13T20:30:05.478Z,3.53
2023-05-13T20:32:33.637Z,3.60
2023-05-13T20:35:01.973Z,3.60
2023-05-13T20:37:30.360Z,4.07
2023-05-13T20:39:58.549Z,3.70
2023-05-13T20:42:27.393Z,3.90
2023-05-13T20:44:56.841Z,4.30
2023-05-13T20:47:24.933Z,5.47
2023-05-13T20:49:52.971Z,5.97
2023-05-13T20:52:21.781Z,4.57
2023-05-13T20:54:49.915Z,4.40
2023-05-13T20:57:17.911Z,4.33
2023-05-13T20:59:46.175Z,3.73
2023-05-13T21:02:18.118Z,4.10
2023-05-13T21:04:46.205Z,4.10
2023-05-13T21:07:14.258Z,4.77
2023-05-13T21:09:42.382Z,3.80
2023-05-13T21:12:11.189Z,4.10
2023-05-13T21:14:39.256Z,4.37
2023-05-13T21:17:07.689Z,4.30
2023-05-13T21:19:37.465Z,4.30
2023-05-13T21:22:06.018Z,4.40
2023-05-13T21:24:34.042Z,4.10
2023-05-13T21:27:02.082Z,4.03
2023-05-13T21:29:30.385Z,4.30
2023-05-13T21:31:58.441Z,4.20
2023-05-13T21:34:26.729Z,4.03
2023-05-13T21:36:56.068Z,8.33
2023-05-13T21:39:24.104Z,8.03
2023-05-13T21:41:52.086Z,4.83
2023-05-13T21:44:20.154Z,4.07
2023-05-13T21:46:48.220Z,5.30
2023-05-13T21:49:16.210Z,11.67
2023-05-13T21:51:44.260Z,24.17
2023-05-13T21:54:13.659Z,12.10
2023-05-13T21:56:41.627Z,7.80
2023-05-13T21:59:09.637Z,4.53
2023-05-13T22:01:37.923Z,4.00
2023-05-13T22:04:06.045Z,3.60
2023-05-13T22:06:34.261Z,3.43
2023-05-13T22:09:02.358Z,4.20
2023-05-13T22:11:31.828Z,3.80
2023-05-13T22:14:00.429Z,4.27
2023-05-13T22:16:28.646Z,3.93
2023-05-13T22:18:59.689Z,4.13
2023-05-13T22:21:27.785Z,4.13
2023-05-13T22:23:55.803Z,4.87
2023-05-13T22:26:23.842Z,4.87
2023-05-13T22:28:53.168Z,4.77
2023-05-13T22:31:21.414Z,5.87
2023-05-13T22:33:49.452Z,21.53
2023-05-13T22:36:17.483Z,9.87
2023-05-13T22:38:45.718Z,7.87
2023-05-13T22:41:14.638Z,5.37
2023-05-13T22:43:42.714Z,4.47
2023-05-13T22:46:16.031Z,4.37
2023-05-13T22:48:44.068Z,4.97
2023-05-13T22:51:14.392Z,4.23
2023-05-13T22:53:42.540Z,4.70
2023-05-13T22:56:10.679Z,4.83
2023-05-13T22:58:38.836Z,5.03
2023-05-13T23:01:06.959Z,4.83
2023-05-13T23:03:36.438Z,6.60
2023-05-13T23:06:04.864Z,6.30
2023-05-13T23:08:33.360Z,5.60
2023-05-13T23:11:01.437Z,6.77
2023-05-13T23:13:29.410Z,17.73
2023-05-13T23:15:57.500Z,30.63
2023-05-13T23:18:25.949Z,12.80
2023-05-13T23:20:56.777Z,6.97
2023-05-13T23:23:24.998Z,4.87
2023-05-13T23:25:53.077Z,4.70
2023-05-13T23:28:21.090Z,4.77
2023-05-13T23:30:49.089Z,4.60
2023-05-13T23:33:17.950Z,4.17
2023-05-13T23:35:45.947Z,3.53
2023-05-13T23:38:15.276Z,3.53
2023-05-13T23:40:43.346Z,3.40
2023-05-13T23:43:16.767Z,3.40
2023-05-13T23:45:45.561Z,3.40
2023-05-13T23:48:41.284Z,3.43
2023-05-13T23:51:11.995Z,3.63
2023-05-13T23:53:41.342Z,3.70
2023-05-13T23:59:07.516Z,4.07
